Time;durP1;ratioP1;P1;durP2;ratioP2;P2;SDS_P1;SDS_P2;PMS_P1;PMS_P2;Temp;Humidity;BMP_temperature;BMP_pressure;BME280_temperature;BME280_humidity;BME280_pressure;Samples;Min_cycle;Max_cycle;Signal;HPM_P1;HPM_P2
2022/09/28 00:01:18;;;;;;;12.68;5.97;;;7.10;99.90;;;;;;5028960;28;20040;-54
2022/09/28 00:03:46;;;;;;;10.80;6.30;;;7.50;99.90;;;;;;5027844;28;20068;-55
2022/09/28 00:06:14;;;;;;;10.43;5.50;;;7.60;99.90;;;;;;5026918;28;20533;-56
2022/09/28 00:08:40;;;;;;;10.60;5.50;;;7.30;99.90;;;;;;5028888;28;20041;-56
2022/09/28 00:11:11;;;;;;;8.27;4.80;;;7.10;99.90;;;;;;5030029;28;20056;-56
2022/09/28 00:13:37;;;;;;;11.73;6.03;;;8.30;99.90;;;;;;5029199;28;20045;-55
2022/09/28 00:16:09;;;;;;;8.05;5.00;;;8.30;99.90;;;;;;5030277;28;20079;-56
2022/09/28 00:18:35;;;;;;;;;;;7.00;99.90;;;;;;5030284;28;20056;-56
2022/09/28 00:21:01;;;;;;;11.02;5.50;;;7.40;99.90;;;;;;5029375;28;19924;-56
2022/09/28 00:23:27;;;;;;;9.60;6.50;;;6.90;99.90;;;;;;5029812;28;20075;-55
2022/09/28 00:25:53;;;;;;;12.13;6.82;;;7.10;99.90;;;;;;5029474;28;20045;-55
2022/09/28 00:28:18;;;;;;;14.95;7.57;;;7.40;99.90;;;;;;5059477;28;20052;-53
2022/09/28 00:30:44;;;;;;;14.23;6.50;;;7.10;99.90;;;;;;5028302;28;20041;-55
2022/09/28 00:33:09;;;;;;;8.63;5.82;;;9.00;99.90;;;;;;5030324;28;20569;-56
2022/09/28 00:35:35;;;;;;;9.80;6.53;;;6.90;99.90;;;;;;5029398;28;20045;-56
2022/09/28 00:38:02;;;;;;;10.32;6.38;;;7.00;99.90;;;;;;5028340;28;20037;-56
2022/09/28 00:40:28;;;;;;;14.73;6.53;;;8.60;99.90;;;;;;5027426;28;20041;-56
2022/09/28 00:42:54;;;;;;;10.43;5.38;;;6.80;99.90;;;;;;5028164;28;20379;-55
2022/09/28 00:45:22;;;;;;;13.77;6.28;;;7.90;99.90;;;;;;5028308;28;20119;-56
2022/09/28 00:47:55;;;;;;;9.80;6.43;;;8.40;99.90;;;;;;5056114;28;20048;-56
2022/09/28 00:50:28;;;;;;;10.90;6.60;;;7.80;99.90;;;;;;5067721;28;20237;-55
2022/09/28 00:53:12;;;;;;;10.68;6.97;;;6.90;99.90;;;;;;5071996;28;20101;-54
2022/09/28 00:55:43;;;;;;;12.75;7.10;;;6.90;99.90;;;;;;5072107;28;20051;-57
2022/09/28 00:58:13;;;;;;;12.40;6.30;;;7.00;99.90;;;;;;5070412;28;20046;-55
2022/09/28 01:00:39;;;;;;;13.05;7.85;;;7.20;99.90;;;;;;5070915;28;20048;-54
2022/09/28 01:03:07;;;;;;;16.17;7.13;;;6.80;99.90;;;;;;5072929;28;20043;-56
2022/09/28 01:05:34;;;;;;;14.60;6.60;;;7.20;99.90;;;;;;5072548;28;20135;-56
2022/09/28 01:08:01;;;;;;;11.65;6.55;;;7.40;99.90;;;;;;5071720;28;20050;-56
2022/09/28 01:10:29;;;;;;;12.32;7.35;;;8.30;99.90;;;;;;5071967;28;20044;-56
2022/09/28 01:12:55;;;;;;;12.93;7.45;;;6.90;99.90;;;;;;5072814;28;20087;-56
2022/09/28 01:15:23;;;;;;;12.25;7.20;;;7.20;99.90;;;;;;5071347;28;20547;-56
2022/09/28 01:18:30;;;;;;;17.63;7.40;;;7.80;99.90;;;;;;5072482;28;20131;-56
2022/09/28 01:21:00;;;;;;;9.88;7.07;;;6.90;99.90;;;;;;5072311;28;20523;-56
2022/09/28 01:23:29;;;;;;;12.50;7.15;;;7.10;99.90;;;;;;5072997;28;20042;-55
2022/09/28 01:26:16;;;;;;;11.23;6.85;;;7.20;99.90;;;;;;5071201;28;20055;-55
2022/09/28 01:28:44;;;;;;;13.60;7.55;;;6.90;99.90;;;;;;5070831;28;20097;-55
2022/09/28 01:31:13;;;;;;;14.05;7.10;;;7.60;99.90;;;;;;5070404;28;20581;-56
2022/09/28 01:33:56;;;;;;;15.35;7.50;;;7.00;99.90;;;;;;5071855;28;20040;-55
2022/09/28 01:36:28;;;;;;;11.70;8.30;;;7.20;99.90;;;;;;5072495;28;20446;-54
2022/09/28 01:39:17;;;;;;;14.75;8.25;;;7.00;99.90;;;;;;5072079;28;20039;-55
2022/09/28 01:41:46;;;;;;;13.23;7.90;;;9.00;99.90;;;;;;5073537;28;20254;-55
2022/09/28 01:44:16;;;;;;;12.55;6.78;;;6.80;99.90;;;;;;5071554;28;20308;-55
2022/09/28 01:46:47;;;;;;;11.45;7.53;;;6.90;99.90;;;;;;5072312;28;20105;-56
2022/09/28 01:49:21;;;;;;;13.43;8.00;;;8.90;99.90;;;;;;5071916;28;20184;-56
2022/09/28 01:52:06;;;;;;;12.25;7.78;;;6.90;99.90;;;;;;5071412;28;20046;-55
2022/09/28 01:54:35;;;;;;;11.13;7.50;;;7.10;99.90;;;;;;5070951;28;20093;-55
2022/09/28 01:57:10;;;;;;;13.70;8.35;;;7.30;99.90;;;;;;5069233;28;20090;-52
2022/09/28 01:59:39;;;;;;;12.13;8.20;;;7.00;99.90;;;;;;5071571;28;20048;-55
2022/09/28 02:02:14;;;;;;;12.05;8.30;;;7.00;99.90;;;;;;5054254;28;20383;-56
2022/09/28 02:04:55;;;;;;;13.60;7.93;;;6.90;99.90;;;;;;5072163;28;20127;-56
2022/09/28 02:07:33;;;;;;;14.15;7.82;;;6.90;99.90;;;;;;5068771;28;20508;-56
2022/09/28 02:10:03;;;;;;;15.10;8.80;;;7.90;99.90;;;;;;5072016;28;20032;-55
2022/09/28 02:12:39;;;;;;;18.75;9.77;;;7.60;99.90;;;;;;5072406;28;20280;-56
2022/09/28 02:15:23;;;;;;;16.13;8.45;;;6.90;99.90;;;;;;5071765;28;20070;-55
2022/09/28 02:17:50;;;;;;;19.15;9.30;;;7.10;99.90;;;;;;5068996;28;20451;-55
2022/09/28 02:20:16;;;;;;;13.70;8.98;;;7.10;99.90;;;;;;5069783;28;20104;-56
2022/09/28 02:22:48;;;;;;;13.25;9.38;;;7.00;99.90;;;;;;5070098;28;20044;-55
2022/09/28 02:25:27;;;;;;;15.05;8.73;;;8.30;99.90;;;;;;5070187;28;20509;-56
2022/09/28 02:28:00;;;;;;;17.35;10.32;;;7.20;99.90;;;;;;5071581;28;20097;-55
2022/09/28 02:30:29;;;;;;;15.93;9.70;;;6.90;99.90;;;;;;5070644;28;20040;-55
2022/09/28 02:33:02;;;;;;;13.07;8.93;;;7.10;99.90;;;;;;5071029;28;20109;-54
2022/09/28 02:35:28;;;;;;;15.10;7.97;;;7.10;99.90;;;;;;5070889;28;20097;-55
2022/09/28 02:37:54;;;;;;;14.55;9.13;;;6.90;99.90;;;;;;5070377;28;20138;-54
2022/09/28 02:40:28;;;;;;;11.02;7.85;;;8.50;99.90;;;;;;5068968;28;20290;-55
2022/09/28 02:43:15;;;;;;;15.25;8.88;;;6.80;99.90;;;;;;5070263;28;20089;-55
2022/09/28 02:45:51;;;;;;;13.48;8.65;;;7.20;99.90;;;;;;5068314;28;20075;-55
2022/09/28 02:48:23;;;;;;;17.08;8.68;;;7.50;99.90;;;;;;5068758;28;20047;-55
2022/09/28 02:51:13;;;;;;;13.77;8.35;;;6.80;99.90;;;;;;5068878;28;20097;-55
2022/09/28 02:53:58;;;;;;;12.68;7.40;;;6.70;99.90;;;;;;5069789;28;20508;-56
2022/09/28 02:56:43;;;;;;;10.43;7.20;;;6.70;99.90;;;;;;5069855;28;20131;-55
2022/09/28 02:59:27;;;;;;;9.73;6.68;;;7.90;99.90;;;;;;5070411;28;20587;-54
2022/09/28 03:02:22;;;;;;;10.48;7.22;;;8.60;99.90;;;;;;5071453;28;20048;-55
2022/09/28 03:05:17;;;;;;;35.95;8.20;;;6.50;99.90;;;;;;5069957;28;20048;-56
2022/09/28 03:07:56;;;;;;;13.35;8.25;;;6.60;99.90;;;;;;5060934;28;20056;-54
2022/09/28 03:10:49;;;;;;;12.70;7.63;;;6.50;99.90;;;;;;5070159;28;20439;-55
2022/09/28 03:13:15;;;;;;;13.93;6.93;;;6.40;99.90;;;;;;5068990;28;20397;-55
2022/09/28 03:15:41;;;;;;;9.55;7.15;;;6.40;99.90;;;;;;5070316;28;20040;-54
2022/09/28 03:18:07;;;;;;;15.32;8.70;;;6.40;99.90;;;;;;5069158;28;20032;-56
2022/09/28 03:20:33;;;;;;;22.02;7.50;;;6.20;99.90;;;;;;5071550;28;20043;-54
2022/09/28 03:22:59;;;;;;;13.38;7.40;;;6.20;99.90;;;;;;5069761;28;20400;-55
2022/09/28 03:25:25;;;;;;;15.95;7.68;;;8.00;99.90;;;;;;5068839;28;20044;-58
2022/09/28 03:27:51;;;;;;;16.63;6.90;;;7.80;99.90;;;;;;5069061;28;20499;-58
2022/09/28 03:30:17;;;;;;;44.95;8.07;;;6.40;99.90;;;;;;5068998;28;20044;-56
2022/09/28 03:32:43;;;;;;;17.25;7.00;;;6.30;99.90;;;;;;5068671;28;20100;-54
2022/09/28 03:35:10;;;;;;;39.83;7.97;;;6.40;99.90;;;;;;5069646;28;20094;-54
2022/09/28 03:37:37;;;;;;;79.68;7.70;;;6.20;99.90;;;;;;5069275;28;20048;-55
2022/09/28 03:40:03;;;;;;;92.13;9.77;;;6.30;99.90;;;;;;5069086;28;20039;-55
2022/09/28 03:42:29;;;;;;;35.15;7.53;;;6.20;99.90;;;;;;5067491;28;20046;-55
2022/09/28 03:44:55;;;;;;;59.60;9.05;;;6.60;99.90;;;;;;5067524;28;20044;-54
2022/09/28 03:47:21;;;;;;;17.13;8.27;;;6.20;99.90;;;;;;5068655;28;21266;-55
2022/09/28 03:49:47;;;;;;;14.43;8.48;;;7.00;99.90;;;;;;5070309;28;20662;-55
2022/09/28 03:52:13;;;;;;;13.38;9.05;;;6.20;99.90;;;;;;5068146;28;20056;-55
2022/09/28 03:54:39;;;;;;;17.30;9.80;;;6.30;99.90;;;;;;5068729;28;20032;-54
2022/09/28 03:57:05;;;;;;;14.48;9.00;;;7.00;99.90;;;;;;5068815;28;20509;-54
2022/09/28 03:59:31;;;;;;;15.20;9.23;;;6.30;99.90;;;;;;5068200;28;20082;-55
2022/09/28 04:01:56;;;;;;;30.00;9.15;;;6.60;99.90;;;;;;5069204;28;20048;-54
2022/09/28 04:04:22;;;;;;;26.42;8.15;;;6.40;99.90;;;;;;5068857;28;20105;-55
2022/09/28 04:06:48;;;;;;;25.60;8.88;;;6.30;99.90;;;;;;5070151;28;20048;-55
2022/09/28 04:09:15;;;;;;;24.05;10.38;;;6.70;99.90;;;;;;5068756;28;20055;-56
2022/09/28 04:11:41;;;;;;;13.75;8.43;;;8.10;99.90;;;;;;5067740;28;20032;-53
2022/09/28 04:14:06;;;;;;;19.50;10.80;;;6.40;99.90;;;;;;5068134;28;20047;-54
2022/09/28 04:16:32;;;;;;;29.50;12.27;;;6.40;99.90;;;;;;5067830;28;20545;-55
2022/09/28 04:18:58;;;;;;;30.58;12.95;;;6.50;99.90;;;;;;5069702;28;20046;-55
2022/09/28 04:21:24;;;;;;;24.55;10.55;;;6.50;99.90;;;;;;5069989;28;20119;-54
2022/09/28 04:23:51;;;;;;;21.73;10.30;;;8.50;99.90;;;;;;5070535;28;20040;-56
2022/09/28 04:26:23;;;;;;;19.48;9.73;;;7.40;99.90;;;;;;5073671;28;21289;-54
2022/09/28 04:31:51;;;;;;;19.05;10.75;;;6.60;99.90;;;;;;5073086;28;20094;-56
2022/09/28 04:34:19;;;;;;;28.42;11.35;;;6.50;99.90;;;;;;5072402;28;20130;-57
2022/09/28 04:36:46;;;;;;;21.98;11.02;;;6.50;99.90;;;;;;5072518;28;20089;-57
2022/09/28 04:39:13;;;;;;;21.92;11.15;;;6.60;99.90;;;;;;5071674;28;20136;-57
2022/09/28 04:41:40;;;;;;;25.83;13.02;;;6.60;99.90;;;;;;5071717;28;20032;-57
2022/09/28 04:44:06;;;;;;;15.55;10.57;;;6.50;99.90;;;;;;5071192;28;20059;-56
2022/09/28 04:46:32;;;;;;;15.80;10.75;;;6.60;99.90;;;;;;5071194;28;20040;-56
2022/09/28 04:48:58;;;;;;;16.83;11.73;;;6.50;99.90;;;;;;5068742;28;20558;-55
2022/09/28 04:51:24;;;;;;;21.83;12.70;;;6.60;99.90;;;;;;5073335;28;20078;-57
2022/09/28 04:53:50;;;;;;;20.58;11.82;;;6.60;99.90;;;;;;5071870;28;20036;-56
2022/09/28 04:56:17;;;;;;;22.15;12.73;;;7.50;99.90;;;;;;5071224;28;20165;-55
2022/09/28 04:58:43;;;;;;;19.38;11.45;;;6.60;99.90;;;;;;5072658;28;20044;-56
2022/09/28 05:01:22;;;;;;;17.98;11.63;;;6.80;99.90;;;;;;5068863;28;20047;-56
2022/09/28 05:03:47;;;;;;;20.58;12.90;;;8.50;99.90;;;;;;5070670;28;20040;-57
2022/09/28 05:06:14;;;;;;;19.23;12.48;;;7.50;99.90;;;;;;5070150;28;20404;-57
2022/09/28 05:08:41;;;;;;;25.70;12.80;;;7.70;99.90;;;;;;5072883;28;20140;-57
2022/09/28 05:11:09;;;;;;;25.58;12.95;;;6.80;99.90;;;;;;5072574;28;20135;-56
2022/09/28 05:13:44;;;;;;;15.52;10.95;;;6.60;99.90;;;;;;5072547;28;20118;-57
2022/09/28 05:16:11;;;;;;;17.27;11.27;;;6.80;99.90;;;;;;5070804;28;20322;-56
2022/09/28 05:18:38;;;;;;;14.48;10.55;;;6.50;99.90;;;;;;5072083;28;20040;-56
2022/09/28 05:21:08;;;;;;;16.67;9.60;;;6.60;99.90;;;;;;5072115;28;20070;-57
2022/09/28 05:23:34;;;;;;;15.43;9.48;;;6.60;99.90;;;;;;5072341;28;20070;-56
2022/09/28 05:26:03;;;;;;;15.07;9.82;;;6.70;99.90;;;;;;5073389;28;20123;-55
2022/09/28 05:28:30;;;;;;;19.20;10.77;;;8.50;99.90;;;;;;5073808;28;20039;-56
2022/09/28 05:31:00;;;;;;;16.23;10.13;;;6.80;99.90;;;;;;5071456;28;20040;-56
2022/09/28 05:33:27;;;;;;;13.32;9.25;;;6.60;99.90;;;;;;5068953;28;20105;-55
2022/09/28 05:35:53;;;;;;;21.58;10.65;;;6.60;99.90;;;;;;5071098;28;20046;-56
2022/09/28 05:38:19;;;;;;;14.85;9.38;;;6.60;99.90;;;;;;5073067;28;20032;-56
2022/09/28 05:40:44;;;;;;;19.45;10.80;;;6.90;99.90;;;;;;5072396;28;20039;-55
2022/09/28 05:43:10;;;;;;;19.25;11.50;;;7.20;99.90;;;;;;5073110;28;20040;-56
2022/09/28 05:45:36;;;;;;;20.35;11.35;;;6.90;99.90;;;;;;5072915;28;20214;-56
2022/09/28 05:48:01;;;;;;;17.15;10.98;;;6.70;99.90;;;;;;5072495;28;20047;-56
2022/09/28 05:50:27;;;;;;;13.55;9.80;;;6.60;99.90;;;;;;5071294;28;20515;-57
2022/09/28 05:53:01;;;;;;;25.45;12.18;;;6.60;99.90;;;;;;5073032;28;20047;-55
2022/09/28 05:55:27;;;;;;;17.95;11.30;;;7.70;99.90;;;;;;5055218;28;20036;-56
2022/09/28 05:57:52;;;;;;;24.77;12.30;;;6.80;99.90;;;;;;5069627;28;20036;-56
2022/09/28 06:00:18;;;;;;;20.50;11.32;;;7.70;99.90;;;;;;5066449;28;20554;-56
2022/09/28 06:02:53;;;;;;;24.17;12.15;;;6.80;99.90;;;;;;5065657;28;20054;-55
2022/09/28 06:05:19;;;;;;;19.20;12.27;;;8.10;99.90;;;;;;5069028;28;20782;-55
2022/09/28 06:07:45;;;;;;;26.27;13.88;;;6.80;99.90;;;;;;5068168;28;20040;-56
2022/09/28 06:10:10;;;;;;;25.25;13.30;;;6.80;99.90;;;;;;5071443;28;20063;-56
2022/09/28 06:12:36;;;;;;;18.95;11.93;;;7.00;99.90;;;;;;5067875;28;20039;-56
2022/09/28 06:15:02;;;;;;;18.73;12.90;;;8.80;99.90;;;;;;5069084;28;20124;-55
2022/09/28 06:17:27;;;;;;;17.85;12.15;;;6.90;99.90;;;;;;5069442;28;20416;-56
2022/09/28 06:19:53;;;;;;;15.48;11.45;;;7.10;99.90;;;;;;5068100;28;20048;-56
2022/09/28 06:22:19;;;;;;;15.23;10.70;;;7.10;99.90;;;;;;5067535;28;20059;-56
2022/09/28 06:24:44;;;;;;;13.45;10.35;;;8.00;99.90;;;;;;5068149;28;20075;-56
2022/09/28 06:27:10;;;;;;;17.70;11.23;;;7.20;99.90;;;;;;5066886;28;20036;-55
2022/09/28 06:29:36;;;;;;;15.73;11.52;;;7.40;99.90;;;;;;5067432;28;20130;-55
2022/09/28 06:32:01;;;;;;;14.30;10.50;;;7.40;99.90;;;;;;5066597;28;20040;-56
2022/09/28 06:34:29;;;;;;;13.57;9.82;;;8.10;99.90;;;;;;5069112;28;20524;-57
2022/09/28 06:36:54;;;;;;;14.43;9.50;;;8.40;99.90;;;;;;5066641;28;20126;-56
2022/09/28 06:39:20;;;;;;;12.80;9.95;;;8.30;99.90;;;;;;5067299;28;20077;-56
2022/09/28 06:41:46;;;;;;;15.95;10.73;;;7.40;99.90;;;;;;5069843;28;20836;-56
2022/09/28 06:44:11;;;;;;;14.15;9.73;;;8.50;99.90;;;;;;5070136;28;20108;-56
2022/09/28 06:46:38;;;;;;;11.27;9.60;;;8.20;99.90;;;;;;5066706;28;20044;-56
2022/09/28 06:49:05;;;;;;;12.23;8.35;;;8.60;99.90;;;;;;5068824;28;20516;-57
2022/09/28 06:51:31;;;;;;;10.45;7.25;;;8.80;99.90;;;;;;5066794;28;20127;-57
2022/09/28 06:53:56;;;;;;;9.52;8.23;;;8.70;99.90;;;;;;5068647;28;20044;-58
2022/09/28 06:56:22;;;;;;;12.57;8.77;;;8.80;99.90;;;;;;5068732;28;20567;-58
2022/09/28 06:58:48;;;;;;;10.40;8.18;;;9.30;99.90;;;;;;5069996;28;20081;-58
2022/09/28 07:01:13;;;;;;;12.95;8.10;;;10.10;99.90;;;;;;5069566;28;20526;-58
2022/09/28 07:03:39;;;;;;;7.97;6.53;;;9.30;99.90;;;;;;5069225;28;20252;-58
2022/09/28 07:06:05;;;;;;;8.60;7.00;;;9.40;99.90;;;;;;5071049;28;20071;-58
2022/09/28 07:08:31;;;;;;;10.15;7.85;;;9.40;99.90;;;;;;5071147;28;20048;-58
2022/09/28 07:10:56;;;;;;;10.00;6.93;;;9.30;99.90;;;;;;5071267;28;20056;-58
2022/09/28 07:13:24;;;;;;;7.97;6.90;;;10.10;99.90;;;;;;5071392;28;20036;-58
2022/09/28 07:15:54;;;;;;;9.30;7.28;;;9.10;99.90;;;;;;5072034;28;20639;-58
2022/09/28 07:18:20;;;;;;;9.13;7.50;;;8.80;99.90;;;;;;5071179;28;20052;-56
2022/09/28 07:20:46;;;;;;;9.25;7.82;;;9.40;99.90;;;;;;5071321;28;20043;-58
2022/09/28 07:23:12;;;;;;;10.10;7.35;;;10.70;99.90;;;;;;5070383;28;20165;-58
2022/09/28 07:25:43;;;;;;;9.07;7.57;;;10.10;99.90;;;;;;5070477;28;20035;-59
2022/09/28 07:28:09;;;;;;;9.15;6.45;;;11.90;99.90;;;;;;5070050;28;20044;-59
2022/09/28 07:30:34;;;;;;;7.95;6.53;;;10.80;99.90;;;;;;5070701;28;20070;-59
2022/09/28 07:33:01;;;;;;;10.45;7.10;;;11.10;99.90;;;;;;5068879;28;20061;-59
2022/09/28 07:35:27;;;;;;;8.80;6.15;;;11.70;99.90;;;;;;5068924;28;21293;-59
2022/09/28 07:38:04;;;;;;;8.05;6.38;;;12.40;98.70;;;;;;5070316;28;20052;-59
2022/09/28 07:43:19;;;;;;;9.10;6.60;;;12.90;75.50;;;;;;5071344;28;20079;-59
2022/09/28 07:45:52;;;;;;;8.77;6.53;;;13.50;77.50;;;;;;5071733;28;20048;-59
2022/09/28 07:48:19;;;;;;;8.35;5.65;;;13.90;44.70;;;;;;5069867;28;20051;-59
2022/09/28 07:50:53;;;;;;;7.13;6.00;;;14.20;45.30;;;;;;5070444;28;20496;-59
2022/09/28 07:53:21;;;;;;;7.43;5.57;;;13.40;31.10;;;;;;5070540;28;20048;-59
2022/09/28 07:56:05;;;;;;;7.20;5.53;;;14.50;47.20;;;;;;5071138;28;20520;-59
2022/09/28 07:58:33;;;;;;;9.23;5.53;;;13.30;36.70;;;;;;5072090;28;20051;-59
2022/09/28 08:01:03;;;;;;;8.60;5.28;;;12.80;51.10;;;;;;5067952;28;20044;-59
2022/09/28 08:03:28;;;;;;;6.25;4.47;;;12.30;49.70;;;;;;5068436;28;20501;-59
2022/09/28 08:06:02;;;;;;;7.13;4.57;;;13.40;64.50;;;;;;5069457;28;20058;-59
2022/09/28 08:08:29;;;;;;;5.95;4.40;;;13.60;70.60;;;;;;5069221;28;20040;-58
2022/09/28 08:10:57;;;;;;;8.93;4.30;;;11.20;80.60;;;;;;5070235;28;20117;-58
2022/09/28 08:13:24;;;;;;;9.63;4.63;;;11.30;88.90;;;;;;5068541;28;20504;-58
2022/09/28 08:15:52;;;;;;;6.93;4.55;;;11.00;91.90;;;;;;5069906;28;20450;-58
2022/09/28 08:18:17;;;;;;;7.07;4.38;;;11.10;92.80;;;;;;5069904;28;20078;-58
2022/09/28 08:23:28;;;;;;;6.60;4.07;;;11.20;94.30;;;;;;5070009;28;20044;-58
2022/09/28 08:25:54;;;;;;;9.43;4.72;;;11.00;96.50;;;;;;5071070;28;20055;-58
2022/09/28 08:28:21;;;;;;;10.40;4.32;;;11.10;97.10;;;;;;5066415;28;20401;-58
2022/09/28 08:30:48;;;;;;;6.90;3.88;;;11.60;96.90;;;;;;5068315;28;20524;-58
2022/09/28 08:33:22;;;;;;;5.75;3.72;;;12.20;95.60;;;;;;5069924;28;20036;-59
2022/09/28 08:35:56;;;;;;;6.43;3.60;;;11.30;96.20;;;;;;5069424;28;20040;-58
2022/09/28 08:38:22;;;;;;;10.13;4.00;;;11.20;97.30;;;;;;5069857;28;20036;-58
2022/09/28 08:41:25;;;;;;;7.07;4.00;;;11.40;98.10;;;;;;5067971;28;20119;-58
2022/09/28 08:44:03;;;;;;;7.00;3.10;;;11.50;95.70;;;;;;5067886;28;20052;-59
2022/09/28 08:46:34;;;;;;;10.98;3.38;;;11.70;95.40;;;;;;5067630;28;20093;-59
2022/09/28 08:49:10;;;;;;;6.60;2.40;;;11.90;93.50;;;;;;5069530;28;20117;-59
2022/09/28 08:51:58;;;;;;;6.32;3.25;;;11.90;82.10;;;;;;5070916;28;20039;-59
2022/09/28 08:54:38;;;;;;;5.50;2.70;;;11.90;85.00;;;;;;5068960;28;20123;-59
2022/09/28 08:57:16;;;;;;;4.78;2.60;;;12.00;86.60;;;;;;5070618;28;20287;-58
2022/09/28 08:59:55;;;;;;;6.45;2.90;;;11.70;84.90;;;;;;5067971;28;20377;-58
2022/09/28 09:02:32;;;;;;;6.28;2.90;;;11.90;84.40;;;;;;5067975;28;20063;-59
2022/09/28 09:05:13;;;;;;;7.50;3.17;;;11.80;89.20;;;;;;5068600;28;20044;-59
2022/09/28 09:08:04;;;;;;;6.53;3.58;;;12.00;90.70;;;;;;5069380;28;20048;-59
2022/09/28 09:10:42;;;;;;;7.47;2.45;;;12.00;89.60;;;;;;5069378;28;20119;-59
2022/09/28 09:13:13;;;;;;;4.55;2.50;;;12.10;86.40;;;;;;5072598;28;20126;-59
2022/09/28 09:16:01;;;;;;;8.82;2.15;;;12.20;89.50;;;;;;5074374;28;20575;-59
2022/09/28 09:18:40;;;;;;;3.97;1.30;;;12.10;85.60;;;;;;5073158;28;20284;-59
2022/09/28 09:21:14;;;;;;;3.15;1.33;;;13.60;83.50;;;;;;5072633;28;20871;-59
2022/09/28 09:23:49;;;;;;;6.30;1.60;;;12.40;74.20;;;;;;5072085;28;20048;-58
2022/09/28 09:26:19;;;;;;;5.90;1.80;;;12.30;56.40;;;;;;5073451;28;20052;-59
2022/09/28 09:29:06;;;;;;;4.68;1.70;;;12.30;64.10;;;;;;5073041;28;20508;-59
2022/09/28 09:31:58;;;;;;;4.43;1.42;;;12.20;63.50;;;;;;5071338;28;20044;-58
2022/09/28 09:34:33;;;;;;;6.40;1.77;;;12.10;58.60;;;;;;5072506;28;20385;-59
2022/09/28 09:37:35;;;;;;;3.10;1.40;;;14.10;58.90;;;;;;5071569;28;20056;-58
2022/09/28 09:40:04;;;;;;;;;;;12.10;34.70;;;;;;5072714;28;20063;-58
2022/09/28 09:42:51;;;;;;;4.65;1.30;;;12.20;51.10;;;;;;5071983;28;20047;-59
2022/09/28 09:46:01;;;;;;;5.00;1.30;;;12.10;65.80;;;;;;5072485;28;20036;-58
2022/09/28 09:48:38;;;;;;;4.43;1.30;;;12.10;64.30;;;;;;5034405;28;21127;-59
2022/09/28 09:51:16;;;;;;;6.07;1.33;;;12.20;69.00;;;;;;5052043;28;20044;-59
2022/09/28 09:53:51;;;;;;;4.25;1.30;;;12.50;74.70;;;;;;5050986;28;20041;-59
2022/09/28 09:56:39;;;;;;;2.50;1.05;;;12.50;67.00;;;;;;5051289;28;20462;-59
2022/09/28 09:59:13;;;;;;;3.42;1.20;;;12.90;47.30;;;;;;5051232;28;20056;-59
2022/09/28 10:01:40;;;;;;;2.85;1.00;;;13.10;43.80;;;;;;5051993;28;21151;-59
2022/09/28 10:04:18;;;;;;;7.40;1.30;;;13.10;44.50;;;;;;5050958;28;20053;-59
2022/09/28 10:06:45;;;;;;;4.72;1.15;;;13.60;37.80;;;;;;5050927;28;20044;-59
2022/09/28 10:09:22;;;;;;;4.13;1.05;;;15.80;31.60;;;;;;5052114;28;20048;-59
2022/09/28 10:11:49;;;;;;;3.15;1.00;;;14.00;23.70;;;;;;5052150;28;20479;-59
2022/09/28 10:14:20;;;;;;;2.83;0.77;;;14.10;1.00;;;;;;5050502;28;20529;-59
2022/09/28 10:16:48;;;;;;;11.63;2.28;;;14.30;6.10;;;;;;5052153;28;20044;-59
2022/09/28 10:19:17;;;;;;;1.90;0.60;;;14.50;1.00;;;;;;5049346;28;20562;-59
2022/09/28 10:21:44;;;;;;;2.40;0.70;;;14.40;1.00;;;;;;5049659;28;20444;-59
2022/09/28 10:24:29;;;;;;;2.75;0.82;;;14.10;1.00;;;;;;5049845;28;20404;-59
2022/09/28 10:27:03;;;;;;;3.83;0.70;;;13.60;1.00;;;;;;5049537;28;20380;-58
2022/09/28 10:29:36;;;;;;;1.73;0.52;;;14.50;1.00;;;;;;5051101;28;20037;-58
2022/09/28 10:32:17;;;;;;;2.22;0.70;;;14.00;1.00;;;;;;5051966;28;20044;-58
2022/09/28 10:34:43;;;;;;;1.02;0.70;;;14.20;1.00;;;;;;5050673;28;20033;-58
2022/09/28 10:37:10;;;;;;;4.00;0.90;;;13.30;1.00;;;;;;5050518;28;20056;-58
2022/09/28 10:39:59;;;;;;;2.08;0.60;;;13.60;6.40;;;;;;5050926;28;20047;-59
2022/09/28 10:42:29;;;;;;;4.97;0.60;;;14.10;1.50;;;;;;5050237;28;20048;-58
2022/09/28 10:44:59;;;;;;;3.80;0.70;;;14.20;1.00;;;;;;5050185;28;20040;-58
2022/09/28 10:47:31;;;;;;;0.98;0.40;;;14.40;1.00;;;;;;5054960;28;20068;-58
2022/09/28 10:49:58;;;;;;;1.88;0.40;;;14.20;1.00;;;;;;5069565;28;20564;-58
2022/09/28 10:52:34;;;;;;;2.08;0.40;;;13.90;1.00;;;;;;5070896;28;20055;-58
2022/09/28 10:55:20;;;;;;;2.35;0.57;;;13.80;1.00;;;;;;5070653;28;20048;-58
2022/09/28 10:57:47;;;;;;;1.75;0.50;;;13.60;1.00;;;;;;5069423;28;20064;-58
2022/09/28 11:00:35;;;;;;;3.95;0.70;;;13.60;1.00;;;;;;5068554;28;20043;-58
2022/09/28 11:03:02;;;;;;;1.65;0.50;;;13.40;1.00;;;;;;5070329;28;20071;-58
2022/09/28 11:05:28;;;;;;;2.35;0.40;;;13.40;1.00;;;;;;5067746;28;20041;-58
2022/09/28 11:07:57;;;;;;;2.17;0.55;;;13.20;1.00;;;;;;5070694;28;20036;-58
2022/09/28 11:10:28;;;;;;;1.65;0.43;;;13.20;1.00;;;;;;5071326;28;20130;-58
2022/09/28 11:12:54;;;;;;;2.57;0.43;;;13.30;1.00;;;;;;5069252;28;20562;-58
2022/09/28 11:15:30;;;;;;;3.45;0.60;;;13.20;1.00;;;;;;5069299;28;20036;-58
2022/09/28 11:18:18;;;;;;;5.53;0.65;;;13.90;1.00;;;;;;5070062;28;20073;-58
2022/09/28 11:20:44;;;;;;;1.42;0.47;;;13.30;1.00;;;;;;5070600;28;20828;-58
2022/09/28 11:23:28;;;;;;;1.35;0.70;;;13.40;1.00;;;;;;5069549;28;20340;-58
2022/09/28 11:26:05;;;;;;;2.15;0.50;;;14.10;1.00;;;;;;5068384;28;20037;-58
2022/09/28 11:28:36;;;;;;;3.67;0.68;;;13.80;1.00;;;;;;5068023;28;20390;-58
2022/09/28 11:31:05;;;;;;;1.98;0.40;;;14.30;1.00;;;;;;5070667;28;20051;-58
2022/09/28 11:33:37;;;;;;;2.35;0.50;;;14.50;1.00;;;;;;5070082;28;20036;-58
2022/09/28 11:36:06;;;;;;;;;;;14.80;1.00;;;;;;5068785;28;20122;-58
2022/09/28 11:38:58;;;;;;;1.85;0.52;;;14.60;99.90;;;;;;5069043;28;19934;-58
2022/09/28 11:41:27;;;;;;;1.20;0.30;;;14.60;1.00;;;;;;5069653;28;20101;-58
2022/09/28 11:44:19;;;;;;;1.83;0.30;;;14.30;1.00;;;;;;5070283;28;20067;-58
2022/09/28 11:46:59;;;;;;;1.90;0.40;;;14.30;1.00;;;;;;5071111;28;20032;-59
2022/09/28 11:49:39;;;;;;;1.75;0.40;;;13.90;1.00;;;;;;5069990;28;20052;-58
2022/09/28 11:52:21;;;;;;;1.20;0.68;;;13.90;1.00;;;;;;5069233;28;21023;-58
2022/09/28 11:54:53;;;;;;;6.43;0.40;;;13.80;1.00;;;;;;5069531;28;20104;-58
2022/09/28 11:57:29;;;;;;;4.25;0.52;;;13.70;1.00;;;;;;5070555;28;20399;-58
2022/09/28 12:00:04;;;;;;;4.47;0.30;;;13.60;1.00;;;;;;5069485;28;20442;-58
2022/09/28 12:02:44;;;;;;;4.13;0.30;;;13.50;1.00;;;;;;5068572;28;20036;-58
2022/09/28 12:05:13;;;;;;;0.98;0.30;;;13.50;1.00;;;;;;5068358;28;20054;-58
2022/09/28 12:07:49;;;;;;;2.35;0.38;;;13.40;1.00;;;;;;5068274;28;20042;-58
2022/09/28 12:10:49;;;;;;;0.73;0.10;;;13.40;1.00;;;;;;5068741;28;20412;-58
2022/09/28 12:13:27;;;;;;;1.23;0.30;;;13.40;1.00;;;;;;5051918;28;20740;-59
2022/09/28 12:16:05;;;;;;;0.70;0.10;;;13.90;1.00;;;;;;5071084;28;20046;-58
2022/09/28 12:18:59;;;;;;;0.52;0.25;;;14.00;1.00;;;;;;5068503;28;20425;-58
2022/09/28 12:21:31;;;;;;;1.65;0.77;;;14.40;99.90;;;;;;5069155;28;20044;-58
2022/09/28 12:24:25;;;;;;;0.25;0.10;;;14.50;99.90;;;;;;5069796;28;20043;-58
2022/09/28 12:26:55;;;;;;;2.67;0.50;;;16.60;99.90;;;;;;5070489;28;20082;-58
2022/09/28 12:29:36;;;;;;;1.27;0.20;;;14.20;1.00;;;;;;5069286;28;20392;-58
2022/09/28 12:32:29;;;;;;;3.10;0.47;;;14.10;1.00;;;;;;5069024;28;20036;-58
2022/09/28 12:34:56;;;;;;;1.48;0.32;;;14.00;1.00;;;;;;5068764;28;20686;-58
2022/09/28 12:37:33;;;;;;;3.80;0.82;;;14.20;1.00;;;;;;5068148;28;20050;-58
2022/09/28 12:40:27;;;;;;;1.45;0.43;;;13.90;1.00;;;;;;5068521;28;20461;-58
2022/09/28 12:43:09;;;;;;;2.13;0.40;;;13.70;1.00;;;;;;5068156;28;20040;-58
2022/09/28 12:45:46;;;;;;;2.15;0.50;;;13.80;1.00;;;;;;5069778;28;20044;-58
2022/09/28 12:48:51;;;;;;;3.25;0.50;;;13.70;1.00;;;;;;5073600;28;20090;-58
2022/09/28 12:51:30;;;;;;;4.25;1.13;;;13.40;6.40;;;;;;5040456;28;20059;-58
2022/09/28 12:54:06;;;;;;;2.20;0.47;;;13.30;2.20;;;;;;5073591;28;20043;-58
2022/09/28 12:56:52;;;;;;;1.17;0.50;;;13.20;1.00;;;;;;5074855;28;20123;-58
2022/09/28 12:59:40;;;;;;;2.00;0.40;;;13.20;1.00;;;;;;5073748;28;20044;-58
2022/09/28 13:02:17;;;;;;;1.48;0.60;;;13.30;1.00;;;;;;5071271;28;20048;-58
2022/09/28 13:05:11;;;;;;;3.10;0.40;;;13.70;1.00;;;;;;5072817;28;20051;-58
2022/09/28 13:08:02;;;;;;;1.20;0.25;;;13.90;1.00;;;;;;5072790;28;20048;-58
2022/09/28 13:10:46;;;;;;;1.85;0.32;;;14.10;1.00;;;;;;5104394;27;20523;-58
2022/09/28 13:13:12;;;;;;;2.13;0.45;;;14.20;1.00;;;;;;5073958;28;20130;-58
2022/09/28 13:15:55;;;;;;;1.80;0.30;;;14.60;1.00;;;;;;5073769;28;20043;-58
2022/09/28 13:18:21;;;;;;;4.57;0.47;;;14.80;99.90;;;;;;5072871;28;20090;-58
2022/09/28 13:20:49;;;;;;;4.80;1.92;;;14.80;99.90;;;;;;5073618;28;20039;-58
2022/09/28 13:23:26;;;;;;;3.65;0.93;;;14.60;99.90;;;;;;5072249;28;20046;-58